createdAt,value
2022-09-07T00:02:17.108Z,2.30
2022-09-07T00:04:44.523Z,2.30
2022-09-07T00:07:13.371Z,2.17
2022-09-07T00:09:40.852Z,2.30
2022-09-07T00:12:08.342Z,2.30
2022-09-07T00:14:35.820Z,2.30
2022-09-07T00:17:03.233Z,2.43
2022-09-07T00:19:30.641Z,2.20
2022-09-07T00:21:58.064Z,2.35
2022-09-07T00:24:27.589Z,2.20
2022-09-07T00:26:55.603Z,2.33
2022-09-07T00:29:23.180Z,2.73
2022-09-07T00:31:50.645Z,2.40
2022-09-07T00:34:18.018Z,2.50
2022-09-07T00:36:45.448Z,2.45
2022-09-07T00:39:12.900Z,2.65
2022-09-07T00:41:41.692Z,2.50
2022-09-07T00:44:26.997Z,2.58
2022-09-07T00:46:54.476Z,2.58
2022-09-07T00:49:22.612Z,2.50
2022-09-07T00:51:52.427Z,2.50
2022-09-07T00:54:21.862Z,2.57
2022-09-07T00:56:52.670Z,2.95
2022-09-07T00:59:21.717Z,2.55
2022-09-07T01:01:49.223Z,2.50
2022-09-07T01:04:17.214Z,2.60
2022-09-07T01:06:44.602Z,2.30
2022-09-07T01:09:13.600Z,2.60
2022-09-07T01:11:41.335Z,2.90
2022-09-07T01:14:12.252Z,2.80
2022-09-07T01:16:48.167Z,2.70
2022-09-07T01:19:25.263Z,2.93
2022-09-07T01:21:59.495Z,2.85
2022-09-07T01:24:36.094Z,3.00
2022-09-07T01:27:12.624Z,2.70
2022-09-07T01:29:44.678Z,3.13
2022-09-07T01:32:17.575Z,2.70
2022-09-07T01:34:48.468Z,2.80
2022-09-07T01:37:17.215Z,3.00
2022-09-07T01:39:47.692Z,2.80
2022-09-07T01:42:16.152Z,2.97
2022-09-07T01:44:48.181Z,3.00
2022-09-07T01:47:18.683Z,3.03
2022-09-07T01:49:49.127Z,3.20
2022-09-07T01:52:18.411Z,3.58
2022-09-07T01:54:48.303Z,3.45
2022-09-07T01:57:17.610Z,3.40
2022-09-07T01:59:47.868Z,3.22
2022-09-07T02:02:17.658Z,3.10
2022-09-07T02:04:47.955Z,3.10
2022-09-07T02:07:18.677Z,3.78
2022-09-07T02:09:50.271Z,3.23
2022-09-07T02:12:22.748Z,3.50
2022-09-07T02:14:54.243Z,3.60
2022-09-07T02:17:23.609Z,3.70
2022-09-07T02:19:52.160Z,3.70
2022-09-07T02:22:22.204Z,4.17
2022-09-07T02:24:51.834Z,3.72
2022-09-07T02:27:22.584Z,3.80
2022-09-07T02:29:52.036Z,3.90
2022-09-07T02:32:20.882Z,3.67
2022-09-07T02:34:48.328Z,4.20
2022-09-07T02:37:16.759Z,4.20
2022-09-07T02:39:44.256Z,4.22
2022-09-07T02:42:11.679Z,4.07
2022-09-07T02:44:40.543Z,3.72
2022-09-07T02:47:16.384Z,3.60
2022-09-07T02:49:54.882Z,3.70
2022-09-07T02:52:27.554Z,3.88
2022-09-07T02:55:03.554Z,3.70
2022-09-07T02:57:38.487Z,4.13
2022-09-07T03:00:08.511Z,3.60
2022-09-07T03:02:40.567Z,4.10
2022-09-07T03:05:13.317Z,3.35
2022-09-07T03:07:45.703Z,3.70
2022-09-07T03:10:13.746Z,3.67
2022-09-07T03:12:41.760Z,3.90
2022-09-07T03:15:11.884Z,3.67
2022-09-07T03:17:39.449Z,4.00
2022-09-07T03:20:07.183Z,3.78
2022-09-07T03:22:35.940Z,3.70
2022-09-07T03:25:04.328Z,4.10
2022-09-07T03:27:32.311Z,4.00
2022-09-07T03:29:59.784Z,3.88
2022-09-07T03:32:31.275Z,4.65
2022-09-07T03:34:59.358Z,3.90
2022-09-07T03:37:26.993Z,4.00
2022-09-07T03:39:56.064Z,4.70
2022-09-07T03:42:23.867Z,4.53
2022-09-07T03:44:51.249Z,4.30
2022-09-07T03:47:18.710Z,4.82
2022-09-07T03:49:46.175Z,4.70
2022-09-07T03:52:13.575Z,4.47
2022-09-07T03:54:40.964Z,4.45
2022-09-07T03:57:09.686Z,4.25
2022-09-07T03:59:37.151Z,4.28
2022-09-07T04:02:04.857Z,4.07
2022-09-07T04:04:32.773Z,4.85
2022-09-07T04:07:00.158Z,4.18
2022-09-07T04:09:27.513Z,4.15
2022-09-07T04:11:54.935Z,4.20
2022-09-07T04:14:23.786Z,4.30
2022-09-07T04:16:51.253Z,4.40
2022-09-07T04:19:18.924Z,4.00
2022-09-07T04:21:47.083Z,4.47
2022-09-07T04:24:14.589Z,4.57
2022-09-07T04:26:43.203Z,4.47
2022-09-07T04:29:10.882Z,4.38
2022-09-07T04:31:39.920Z,4.00
2022-09-07T04:34:07.794Z,3.92
2022-09-07T04:36:35.642Z,4.13
2022-09-07T04:39:04.143Z,4.03
2022-09-07T04:41:32.730Z,3.88
2022-09-07T04:44:00.948Z,4.00
2022-09-07T04:46:29.675Z,3.83
2022-09-07T04:48:59.075Z,4.07
2022-09-07T04:51:27.663Z,3.30
2022-09-07T04:53:55.965Z,3.58
2022-09-07T04:56:23.659Z,3.97
2022-09-07T04:58:51.459Z,3.47
2022-09-07T05:01:19.841Z,3.63
2022-09-07T05:03:47.732Z,3.83
2022-09-07T05:06:17.684Z,4.20
2022-09-07T05:08:45.876Z,4.68
2022-09-07T05:11:14.011Z,5.57
2022-09-07T05:13:41.579Z,5.50
2022-09-07T05:16:09.538Z,5.87
2022-09-07T05:18:36.969Z,6.32
2022-09-07T05:21:11.343Z,6.47
2022-09-07T05:23:40.417Z,6.05
2022-09-07T05:26:08.251Z,6.80
2022-09-07T05:28:36.527Z,7.53
2022-09-07T05:31:20.540Z,7.00
2022-09-07T05:36:36.503Z,7.10
2022-09-07T05:39:06.080Z,7.20
2022-09-07T05:41:33.795Z,7.93
2022-09-07T05:46:48.625Z,7.28
2022-09-07T05:49:16.393Z,6.95
2022-09-07T05:51:43.772Z,7.80
2022-09-07T05:54:12.892Z,7.70
2022-09-07T05:56:40.421Z,7.82
2022-09-07T05:59:07.795Z,7.57
2022-09-07T06:01:36.083Z,7.38
2022-09-07T06:04:03.644Z,8.30
2022-09-07T06:06:31.128Z,6.93
2022-09-07T06:08:58.635Z,7.97
2022-09-07T06:11:27.804Z,7.47
2022-09-07T06:13:55.760Z,8.05
2022-09-07T06:16:23.228Z,8.27
2022-09-07T06:18:51.006Z,8.90
2022-09-07T06:21:19.614Z,8.45
2022-09-07T06:23:47.788Z,8.85
2022-09-07T06:26:16.285Z,8.52
2022-09-07T06:28:48.919Z,8.38
2022-09-07T06:31:18.067Z,9.00
2022-09-07T06:33:47.431Z,8.88
2022-09-07T06:36:16.117Z,9.75
2022-09-07T06:38:43.881Z,9.13
2022-09-07T06:44:02.766Z,9.53
2022-09-07T06:49:17.926Z,9.10
2022-09-07T06:51:45.293Z,8.45
2022-09-07T06:57:00.050Z,8.90
2022-09-07T06:59:28.762Z,8.93
2022-09-07T07:01:56.159Z,8.20
2022-09-07T07:04:23.656Z,9.23
2022-09-07T07:06:51.078Z,8.23
2022-09-07T07:09:18.507Z,8.30
2022-09-07T07:11:47.388Z,8.18
2022-09-07T07:14:15.256Z,8.25
2022-09-07T07:16:44.091Z,8.20
2022-09-07T07:19:11.572Z,8.23
2022-09-07T07:22:05.561Z,7.90
2022-09-07T07:24:26.342Z,8.50
2022-09-07T07:26:53.751Z,7.95
2022-09-07T07:29:22.829Z,8.30
2022-09-07T07:31:52.770Z,8.50
2022-09-07T07:34:20.191Z,8.73
2022-09-07T07:36:47.541Z,8.57
2022-09-07T07:42:03.402Z,8.55
2022-09-07T07:44:32.849Z,8.60
2022-09-07T07:47:02.649Z,8.33
2022-09-07T07:49:30.028Z,8.98
2022-09-07T07:54:45.098Z,7.88
2022-09-07T07:57:12.727Z,7.82
2022-09-07T07:59:40.056Z,7.40
2022-09-07T08:02:12.804Z,7.35
2022-09-07T08:04:40.317Z,7.22
2022-09-07T08:07:10.479Z,7.65
2022-09-07T08:09:39.074Z,8.10
2022-09-07T08:12:06.598Z,8.40
2022-09-07T08:14:36.439Z,8.38
2022-09-07T08:17:03.866Z,8.45
2022-09-07T08:19:32.534Z,8.85
2022-09-07T08:21:59.897Z,8.82
2022-09-07T08:24:27.269Z,8.53
2022-09-07T08:26:54.651Z,8.93
2022-09-07T08:29:22.085Z,9.02
2022-09-07T08:31:49.562Z,9.50
2022-09-07T08:34:17.252Z,8.75
2022-09-07T08:36:45.900Z,8.03
2022-09-07T08:39:13.235Z,7.53
2022-09-07T08:42:01.387Z,6.40
2022-09-07T08:44:30.716Z,5.93
2022-09-07T08:47:00.590Z,5.75
2022-09-07T08:49:32.808Z,5.50
2022-09-07T08:52:03.503Z,4.85
2022-09-07T08:54:30.879Z,4.40
2022-09-07T08:59:52.599Z,3.80
2022-09-07T09:02:27.972Z,3.10
2022-09-07T09:07:51.956Z,2.83
2022-09-07T09:10:22.514Z,3.50
2022-09-07T09:12:59.035Z,2.80
2022-09-07T09:15:32.237Z,3.27
2022-09-07T09:18:02.667Z,3.28
2022-09-07T09:20:32.586Z,2.83
2022-09-07T09:23:05.883Z,3.05
2022-09-07T09:25:35.005Z,3.25
2022-09-07T09:28:02.540Z,2.80
2022-09-07T09:30:31.127Z,2.60
2022-09-07T09:33:13.547Z,2.40
2022-09-07T09:35:41.712Z,2.10
2022-09-07T09:38:24.291Z,1.90
2022-09-07T09:40:53.653Z,1.63
2022-09-07T09:43:21.809Z,1.60
2022-09-07T09:48:40.298Z,1.45
2022-09-07T09:53:58.025Z,1.50
2022-09-07T09:56:43.642Z,1.63
2022-09-07T10:05:35.190Z,1.63
2022-09-07T10:08:02.852Z,1.87
2022-09-07T10:10:31.392Z,1.27
2022-09-07T10:13:01.620Z,1.70
2022-09-07T10:15:39.968Z,1.60
2022-09-07T10:18:09.664Z,1.80
2022-09-07T10:20:37.511Z,1.80
2022-09-07T10:23:05.649Z,1.80
2022-09-07T10:25:34.764Z,2.08
2022-09-07T10:28:04.716Z,1.85
2022-09-07T10:30:35.324Z,1.95
2022-09-07T10:33:06.559Z,2.00
2022-09-07T10:35:35.266Z,2.20
2022-09-07T10:38:10.504Z,2.50
2022-09-07T10:40:41.241Z,2.30
2022-09-07T10:43:24.249Z,2.95
2022-09-07T10:45:58.982Z,2.50
2022-09-07T10:48:30.816Z,2.00
2022-09-07T10:51:03.127Z,2.20
2022-09-07T10:53:43.495Z,1.90
2022-09-07T10:56:11.918Z,2.45
2022-09-07T10:59:03.582Z,1.80
2022-09-07T11:01:38.726Z,2.00
2022-09-07T11:04:13.740Z,1.60
2022-09-07T11:06:42.361Z,1.45
2022-09-07T11:09:19.778Z,1.85
2022-09-07T11:12:05.337Z,1.50
2022-09-07T11:14:36.803Z,1.50
2022-09-07T11:17:06.830Z,1.63
2022-09-07T11:19:37.522Z,1.67
2022-09-07T11:22:10.895Z,2.00
2022-09-07T11:24:42.487Z,2.10
2022-09-07T11:27:11.073Z,2.30
2022-09-07T11:29:44.463Z,2.00
2022-09-07T11:32:14.108Z,2.40
2022-09-07T11:34:42.208Z,2.08
2022-09-07T11:37:11.948Z,2.20
2022-09-07T11:39:41.375Z,2.30
2022-09-07T11:45:07.359Z,1.25
2022-09-07T11:47:37.000Z,1.58
2022-09-07T11:50:06.045Z,1.43
2022-09-07T11:52:37.174Z,1.10
2022-09-07T11:55:06.550Z,1.20
2022-09-07T11:57:44.066Z,1.13
2022-09-07T12:00:15.027Z,1.30
2022-09-07T12:03:05.359Z,1.30
2022-09-07T12:05:41.438Z,1.38
2022-09-07T12:08:17.168Z,1.50
2022-09-07T12:10:55.986Z,1.40
2022-09-07T12:13:40.714Z,1.23
2022-09-07T12:16:12.875Z,1.40
2022-09-07T12:18:52.146Z,1.40
2022-09-07T12:21:36.169Z,1.55
2022-09-07T12:24:03.846Z,2.13
2022-09-07T12:26:49.955Z,1.40
2022-09-07T12:29:20.156Z,1.97
2022-09-07T12:34:39.996Z,2.20
2022-09-07T12:37:22.661Z,2.00
2022-09-07T12:39:50.162Z,2.20
2022-09-07T12:42:38.461Z,2.40
2022-09-07T12:45:23.804Z,2.50
2022-09-07T12:47:57.383Z,2.60
2022-09-07T12:50:28.471Z,2.85
2022-09-07T12:53:15.171Z,2.50
2022-09-07T12:58:43.931Z,2.65
2022-09-07T13:01:29.080Z,2.08
2022-09-07T13:04:14.694Z,2.22
2022-09-07T13:07:06.118Z,2.35
2022-09-07T13:09:35.808Z,3.23
2022-09-07T13:12:07.191Z,2.50
2022-09-07T13:14:37.822Z,2.90
2022-09-07T13:17:26.415Z,2.90
2022-09-07T13:20:21.061Z,2.80
2022-09-07T13:22:55.125Z,2.50
2022-09-07T13:25:49.950Z,2.13
2022-09-07T13:28:25.350Z,2.10
2022-09-07T13:31:00.056Z,2.40
2022-09-07T13:33:44.704Z,2.03
2022-09-07T13:36:19.067Z,2.10
2022-09-07T13:38:47.756Z,2.00
2022-09-07T13:41:16.780Z,1.50
2022-09-07T13:43:48.862Z,1.80
2022-09-07T13:46:23.700Z,1.77
2022-09-07T13:48:52.687Z,1.60
2022-09-07T13:51:23.887Z,1.60
2022-09-07T13:53:59.810Z,1.50
2022-09-07T13:56:33.331Z,1.42
2022-09-07T13:59:11.721Z,1.90
2022-09-07T14:01:43.776Z,1.80
2022-09-07T14:04:17.227Z,1.80
2022-09-07T14:06:44.566Z,1.70
2022-09-07T14:09:15.137Z,1.80
2022-09-07T14:11:43.337Z,1.65
2022-09-07T14:14:15.184Z,1.63
2022-09-07T14:16:43.771Z,1.60
2022-09-07T14:19:12.011Z,1.50
2022-09-07T14:21:39.609Z,1.52
2022-09-07T14:24:18.096Z,1.60
2022-09-07T14:26:46.640Z,1.30
2022-09-07T14:29:22.717Z,1.27
2022-09-07T14:31:50.633Z,1.30
2022-09-07T14:34:19.790Z,1.00
2022-09-07T14:36:47.735Z,1.08
2022-09-07T14:39:16.330Z,1.27
2022-09-07T14:41:44.020Z,1.20
2022-09-07T14:44:26.245Z,1.30
2022-09-07T14:46:56.997Z,1.55
2022-09-07T14:49:24.863Z,1.20
2022-09-07T14:51:53.162Z,1.03
2022-09-07T14:54:21.659Z,1.50
2022-09-07T14:57:01.005Z,1.40
2022-09-07T14:59:33.783Z,1.17
2022-09-07T15:02:28.430Z,1.30
2022-09-07T15:05:18.843Z,1.30
2022-09-07T15:07:47.965Z,1.30
2022-09-07T15:10:16.235Z,1.55
2022-09-07T15:12:43.983Z,1.20
2022-09-07T15:15:12.550Z,1.20
2022-09-07T15:17:43.637Z,1.57
2022-09-07T15:20:29.784Z,1.40
2022-09-07T15:22:58.576Z,1.55
2022-09-07T15:25:26.077Z,1.30
2022-09-07T15:27:54.458Z,1.50
2022-09-07T15:30:21.835Z,1.47
2022-09-07T15:32:49.508Z,1.30
2022-09-07T15:35:17.095Z,1.60
2022-09-07T15:40:38.099Z,2.00
2022-09-07T15:43:19.295Z,1.60
2022-09-07T15:45:48.128Z,1.65
2022-09-07T15:48:16.081Z,1.80
2022-09-07T15:50:43.447Z,2.30
2022-09-07T15:54:06.644Z,1.90
2022-09-07T15:55:59.523Z,1.70
2022-09-07T15:58:26.887Z,1.65
2022-09-07T16:01:51.501Z,1.80
2022-09-07T16:03:41.770Z,2.00
2022-09-07T16:06:13.588Z,1.67
2022-09-07T16:08:41.596Z,2.20
2022-09-07T16:11:18.962Z,1.70
2022-09-07T16:13:48.172Z,1.90
2022-09-07T16:16:16.241Z,1.60
2022-09-07T16:18:46.738Z,1.80
2022-09-07T16:21:14.588Z,1.50
2022-09-07T16:23:42.956Z,1.65
2022-09-07T16:26:11.003Z,1.50
2022-09-07T16:28:40.800Z,1.55
2022-09-07T16:31:08.802Z,1.70
2022-09-07T16:33:37.221Z,1.50
2022-09-07T16:36:06.055Z,1.77
2022-09-07T16:38:48.862Z,1.70
2022-09-07T16:41:16.982Z,1.33
2022-09-07T16:43:46.052Z,1.35
2022-09-07T16:46:15.011Z,1.30
2022-09-07T16:48:43.776Z,1.20
2022-09-07T16:51:12.935Z,1.42
2022-09-07T16:53:40.663Z,1.13
2022-09-07T16:56:09.230Z,1.48
2022-09-07T16:58:37.982Z,1.50
2022-09-07T17:01:07.536Z,1.45
2022-09-07T17:03:35.628Z,1.35
2022-09-07T17:06:03.526Z,1.33
2022-09-07T17:08:31.134Z,1.60
2022-09-07T17:11:02.548Z,1.27
2022-09-07T17:13:31.339Z,1.45
2022-09-07T17:16:02.399Z,1.25
2022-09-07T17:21:19.721Z,1.40
2022-09-07T17:23:54.309Z,1.10
2022-09-07T17:26:26.044Z,1.40
2022-09-07T17:28:54.347Z,1.40
2022-09-07T17:34:13.147Z,1.67
2022-09-07T17:36:40.540Z,1.60
2022-09-07T17:39:17.238Z,1.27
2022-09-07T17:41:46.084Z,1.40
2022-09-07T17:44:13.498Z,1.70
2022-09-07T17:46:40.849Z,1.77
2022-09-07T17:49:11.985Z,1.57
2022-09-07T17:51:40.795Z,1.60
2022-09-07T17:54:10.858Z,1.90
2022-09-07T17:56:39.483Z,3.10
2022-09-07T18:01:54.606Z,1.80
2022-09-07T18:04:22.334Z,2.00
2022-09-07T18:06:51.356Z,1.70
2022-09-07T18:09:19.543Z,2.03
2022-09-07T18:11:48.564Z,2.10
2022-09-07T18:14:16.316Z,1.93
2022-09-07T18:16:44.783Z,1.98
2022-09-07T18:19:12.661Z,1.80
2022-09-07T18:21:41.846Z,2.33
2022-09-07T18:24:13.636Z,1.98
2022-09-07T18:26:41.728Z,2.13
2022-09-07T18:29:25.874Z,1.80
2022-09-07T18:31:55.300Z,2.45
2022-09-07T18:34:22.773Z,2.95
2022-09-07T18:36:50.161Z,1.90
2022-09-07T18:39:18.962Z,2.20
2022-09-07T18:41:46.383Z,1.98
2022-09-07T18:47:01.244Z,2.03
2022-09-07T18:49:28.599Z,2.08
2022-09-07T18:54:44.929Z,3.13
2022-09-07T18:57:12.899Z,3.20
2022-09-07T18:59:40.989Z,3.20
2022-09-07T19:02:09.657Z,3.28
2022-09-07T19:07:28.955Z,3.20
2022-09-07T19:09:58.507Z,3.03
2022-09-07T19:12:26.036Z,2.60
2022-09-07T19:14:53.399Z,2.75
2022-09-07T19:17:20.775Z,2.60
2022-09-07T19:19:48.397Z,2.83
2022-09-07T19:22:15.826Z,2.67
2022-09-07T19:24:43.162Z,2.90
2022-09-07T19:27:11.837Z,3.17
2022-09-07T19:29:39.175Z,2.70
2022-09-07T19:32:07.421Z,3.00
2022-09-07T19:34:35.737Z,2.90
2022-09-07T19:37:03.234Z,2.80
2022-09-07T19:39:30.663Z,3.00
2022-09-07T19:41:58.105Z,2.80
2022-09-07T19:44:27.882Z,2.73
2022-09-07T19:46:55.437Z,2.70
2022-09-07T19:49:23.054Z,2.78
2022-09-07T19:51:51.801Z,3.22
2022-09-07T19:54:19.323Z,2.92
2022-09-07T19:56:46.692Z,4.03
2022-09-07T19:59:14.291Z,4.05
2022-09-07T20:01:46.302Z,4.32
2022-09-07T20:04:19.598Z,4.10
2022-09-07T20:06:49.502Z,3.75
2022-09-07T20:09:17.287Z,3.67
2022-09-07T20:11:46.938Z,3.55
2022-09-07T20:14:14.595Z,3.38
2022-09-07T20:16:43.436Z,3.70
2022-09-07T20:19:11.508Z,4.03
2022-09-07T20:21:38.882Z,3.90
2022-09-07T20:24:06.360Z,4.10
2022-09-07T20:26:33.742Z,4.10
2022-09-07T20:29:25.668Z,4.45
2022-09-07T20:31:49.981Z,4.38
2022-09-07T20:34:17.452Z,4.40
2022-09-07T20:36:45.187Z,4.38
2022-09-07T20:39:13.811Z,4.70
2022-09-07T20:41:41.177Z,4.18
2022-09-07T20:44:09.626Z,4.43
2022-09-07T20:46:37.041Z,4.40
2022-09-07T20:49:05.832Z,4.20
2022-09-07T20:51:33.373Z,4.65
2022-09-07T20:54:00.770Z,4.85
2022-09-07T20:56:28.990Z,4.30
2022-09-07T20:58:57.257Z,4.43
2022-09-07T21:01:24.904Z,4.20
2022-09-07T21:03:53.218Z,4.13
2022-09-07T21:06:22.956Z,4.60
2022-09-07T21:08:50.907Z,4.50
2022-09-07T21:11:19.066Z,3.70
2022-09-07T21:13:46.973Z,3.75
2022-09-07T21:16:14.973Z,4.03
2022-09-07T21:18:42.689Z,4.07
2022-09-07T21:21:25.456Z,4.30
2022-09-07T21:23:56.969Z,3.80
2022-09-07T21:26:24.626Z,4.50
2022-09-07T21:28:55.719Z,4.13
2022-09-07T21:31:23.119Z,4.13
2022-09-07T21:33:53.845Z,4.85
2022-09-07T21:36:21.204Z,4.30
2022-09-07T21:38:48.580Z,4.30
2022-09-07T21:41:18.404Z,5.00
2022-09-07T21:43:46.333Z,4.90
2022-09-07T21:46:14.428Z,4.68
2022-09-07T21:48:41.886Z,4.80
2022-09-07T21:51:09.246Z,4.75
2022-09-07T21:53:36.618Z,4.35
2022-09-07T21:56:05.555Z,4.55
2022-09-07T21:58:34.440Z,4.10
2022-09-07T22:01:09.108Z,4.37
2022-09-07T22:03:36.562Z,4.55
2022-09-07T22:06:03.929Z,4.53
2022-09-07T22:08:31.291Z,4.00
2022-09-07T22:11:03.860Z,5.00
2022-09-07T22:13:31.285Z,4.40
2022-09-07T22:16:00.242Z,3.88
2022-09-07T22:18:30.171Z,4.03
2022-09-07T22:21:04.750Z,3.70
2022-09-07T22:23:32.334Z,3.72
2022-09-07T22:26:00.236Z,3.53
2022-09-07T22:28:29.176Z,3.50
2022-09-07T22:30:56.888Z,3.72
2022-09-07T22:33:25.641Z,3.50
2022-09-07T22:35:53.011Z,3.40
2022-09-07T22:38:20.412Z,3.30
2022-09-07T22:40:47.980Z,3.65
2022-09-07T22:43:15.312Z,3.17
2022-09-07T22:45:42.705Z,2.90
2022-09-07T22:48:10.072Z,3.45
2022-09-07T22:50:39.134Z,3.03
2022-09-07T22:53:06.517Z,3.05
2022-09-07T22:55:38.734Z,3.10
2022-09-07T22:58:06.628Z,2.80
2022-09-07T23:00:36.404Z,2.55
2022-09-07T23:03:04.891Z,2.70
2022-09-07T23:05:36.781Z,2.95
2022-09-07T23:08:05.559Z,3.05
2022-09-07T23:10:34.744Z,3.10
2022-09-07T23:13:02.485Z,3.22
2022-09-07T23:15:30.012Z,2.90
2022-09-07T23:17:57.475Z,3.08
2022-09-07T23:20:25.461Z,2.90
2022-09-07T23:22:52.992Z,3.28
2022-09-07T23:25:21.718Z,2.90
2022-09-07T23:27:49.074Z,3.50
2022-09-07T23:30:16.457Z,2.65
2022-09-07T23:32:43.788Z,3.00
2022-09-07T23:35:14.892Z,3.08
2022-09-07T23:37:43.980Z,3.15
2022-09-07T23:40:11.658Z,3.50
2022-09-07T23:42:40.444Z,2.90
2022-09-07T23:45:08.678Z,3.35
2022-09-07T23:47:36.019Z,3.38
2022-09-07T23:50:03.353Z,3.28
2022-09-07T23:52:30.804Z,3.50
2022-09-07T23:54:58.201Z,3.35
2022-09-07T23:57:25.528Z,3.42
2022-09-07T23:59:54.231Z,3.83
